sensor_id;sensor_type;location;lat;lon;timestamp;temperature;humidity
17033;DHT22;63208;52.178;21.016;2024-02-15T00:00:51;6.80;94.40
17033;DHT22;63208;52.178;21.016;2024-02-15T00:03:20;6.80;94.70
17033;DHT22;63208;52.178;21.016;2024-02-15T00:05:49;6.80;95.00
17033;DHT22;63208;52.178;21.016;2024-02-15T00:08:15;6.90;95.10
17033;DHT22;63208;52.178;21.016;2024-02-15T00:10:42;6.80;94.60
17033;DHT22;63208;52.178;21.016;2024-02-15T00:13:12;6.80;95.00
17033;DHT22;63208;52.178;21.016;2024-02-15T00:15:38;6.70;95.00
17033;DHT22;63208;52.178;21.016;2024-02-15T00:18:05;6.60;94.60
17033;DHT22;63208;52.178;21.016;2024-02-15T00:20:32;6.70;94.80
17033;DHT22;63208;52.178;21.016;2024-02-15T00:23:00;6.80;94.80
17033;DHT22;63208;52.178;21.016;2024-02-15T00:25:27;6.80;94.90
17033;DHT22;63208;52.178;21.016;2024-02-15T00:27:54;6.70;95.00
17033;DHT22;63208;52.178;21.016;2024-02-15T00:30:20;6.60;94.90
17033;DHT22;63208;52.178;21.016;2024-02-15T00:32:47;6.80;95.10
17033;DHT22;63208;52.178;21.016;2024-02-15T00:35:14;6.70;94.90
17033;DHT22;63208;52.178;21.016;2024-02-15T00:37:40;6.80;95.20
17033;DHT22;63208;52.178;21.016;2024-02-15T00:40:09;6.70;94.90
17033;DHT22;63208;52.178;21.016;2024-02-15T00:42:36;6.60;94.80
17033;DHT22;63208;52.178;21.016;2024-02-15T00:45:03;6.70;94.80
17033;DHT22;63208;52.178;21.016;2024-02-15T00:47:30;6.60;95.00
17033;DHT22;63208;52.178;21.016;2024-02-15T00:49:58;6.60;95.00
17033;DHT22;63208;52.178;21.016;2024-02-15T00:52:24;6.70;95.20
17033;DHT22;63208;52.178;21.016;2024-02-15T00:54:52;6.60;94.90
17033;DHT22;63208;52.178;21.016;2024-02-15T00:57:20;6.60;94.90
17033;DHT22;63208;52.178;21.016;2024-02-15T00:59:46;6.70;95.10
17033;DHT22;63208;52.178;21.016;2024-02-15T01:02:14;6.60;95.00
17033;DHT22;63208;52.178;21.016;2024-02-15T01:04:40;6.70;95.20
17033;DHT22;63208;52.178;21.016;2024-02-15T01:07:08;6.60;95.30
17033;DHT22;63208;52.178;21.016;2024-02-15T01:09:34;6.60;95.30
17033;DHT22;63208;52.178;21.016;2024-02-15T01:12:01;6.60;95.30
17033;DHT22;63208;52.178;21.016;2024-02-15T01:14:30;6.60;95.40
17033;DHT22;63208;52.178;21.016;2024-02-15T01:16:57;6.60;95.30
17033;DHT22;63208;52.178;21.016;2024-02-15T01:19:24;6.60;95.50
17033;DHT22;63208;52.178;21.016;2024-02-15T01:21:50;6.50;95.40
17033;DHT22;63208;52.178;21.016;2024-02-15T01:24:18;6.60;95.70
17033;DHT22;63208;52.178;21.016;2024-02-15T01:26:45;6.50;95.50
17033;DHT22;63208;52.178;21.016;2024-02-15T01:29:13;6.60;95.60
17033;DHT22;63208;52.178;21.016;2024-02-15T01:31:41;6.60;95.70
17033;DHT22;63208;52.178;21.016;2024-02-15T01:34:08;6.60;95.70
17033;DHT22;63208;52.178;21.016;2024-02-15T01:36:35;6.60;95.70
17033;DHT22;63208;52.178;21.016;2024-02-15T01:39:02;6.50;95.50
17033;DHT22;63208;52.178;21.016;2024-02-15T01:41:28;6.60;95.70
17033;DHT22;63208;52.178;21.016;2024-02-15T01:43:55;6.50;95.90
17033;DHT22;63208;52.178;21.016;2024-02-15T01:46:22;6.80;95.90
17033;DHT22;63208;52.178;21.016;2024-02-15T01:48:50;6.70;95.90
17033;DHT22;63208;52.178;21.016;2024-02-15T01:51:16;6.70;95.90
17033;DHT22;63208;52.178;21.016;2024-02-15T01:53:44;6.70;95.80
17033;DHT22;63208;52.178;21.016;2024-02-15T01:56:11;6.70;96.00
17033;DHT22;63208;52.178;21.016;2024-02-15T01:58:39;6.70;95.80
17033;DHT22;63208;52.178;21.016;2024-02-15T02:01:06;6.60;95.70
17033;DHT22;63208;52.178;21.016;2024-02-15T02:03:33;6.50;95.80
17033;DHT22;63208;52.178;21.016;2024-02-15T02:06:01;6.50;95.90
17033;DHT22;63208;52.178;21.016;2024-02-15T02:08:28;6.50;95.70
17033;DHT22;63208;52.178;21.016;2024-02-15T02:10:55;6.50;95.90
17033;DHT22;63208;52.178;21.016;2024-02-15T02:13:22;6.50;95.90
17033;DHT22;63208;52.178;21.016;2024-02-15T02:15:49;6.40;96.10
17033;DHT22;63208;52.178;21.016;2024-02-15T02:18:16;6.50;96.20
17033;DHT22;63208;52.178;21.016;2024-02-15T02:20:43;6.50;96.10
17033;DHT22;63208;52.178;21.016;2024-02-15T02:23:14;6.60;96.30
17033;DHT22;63208;52.178;21.016;2024-02-15T02:25:42;6.60;96.20
17033;DHT22;63208;52.178;21.016;2024-02-15T02:28:11;6.50;96.10
17033;DHT22;63208;52.178;21.016;2024-02-15T02:30:38;6.50;96.40
17033;DHT22;63208;52.178;21.016;2024-02-15T02:33:10;6.60;96.60
17033;DHT22;63208;52.178;21.016;2024-02-15T02:35:36;6.50;96.20
17033;DHT22;63208;52.178;21.016;2024-02-15T02:38:03;6.50;96.20
17033;DHT22;63208;52.178;21.016;2024-02-15T02:40:30;6.50;96.30
17033;DHT22;63208;52.178;21.016;2024-02-15T02:42:58;6.40;96.20
17033;DHT22;63208;52.178;21.016;2024-02-15T02:45:25;6.50;96.60
17033;DHT22;63208;52.178;21.016;2024-02-15T02:47:52;6.40;96.30
17033;DHT22;63208;52.178;21.016;2024-02-15T02:50:18;6.50;96.50
17033;DHT22;63208;52.178;21.016;2024-02-15T02:52:45;6.50;96.50
17033;DHT22;63208;52.178;21.016;2024-02-15T02:55:13;6.50;96.50
17033;DHT22;63208;52.178;21.016;2024-02-15T02:57:40;6.50;96.40
17033;DHT22;63208;52.178;21.016;2024-02-15T03:00:09;6.50;96.40
17033;DHT22;63208;52.178;21.016;2024-02-15T03:02:38;6.50;96.50
17033;DHT22;63208;52.178;21.016;2024-02-15T03:05:05;6.60;96.70
17033;DHT22;63208;52.178;21.016;2024-02-15T03:07:33;5.50;96.60
17033;DHT22;63208;52.178;21.016;2024-02-15T03:10:00;6.60;96.60
17033;DHT22;63208;52.178;21.016;2024-02-15T03:12:28;6.70;96.70
17033;DHT22;63208;52.178;21.016;2024-02-15T03:14:55;6.60;96.40
17033;DHT22;63208;52.178;21.016;2024-02-15T03:17:23;6.60;96.60
17033;DHT22;63208;52.178;21.016;2024-02-15T03:19:51;6.70;96.80
17033;DHT22;63208;52.178;21.016;2024-02-15T03:22:18;6.60;96.70
17033;DHT22;63208;52.178;21.016;2024-02-15T03:24:44;6.60;96.40
17033;DHT22;63208;52.178;21.016;2024-02-15T03:27:11;6.60;96.60
17033;DHT22;63208;52.178;21.016;2024-02-15T03:29:38;6.70;96.50
17033;DHT22;63208;52.178;21.016;2024-02-15T03:32:05;6.70;96.50
17033;DHT22;63208;52.178;21.016;2024-02-15T03:34:33;6.70;96.50
17033;DHT22;63208;52.178;21.016;2024-02-15T03:37:00;6.60;96.40
17033;DHT22;63208;52.178;21.016;2024-02-15T03:39:29;6.70;96.50
17033;DHT22;63208;52.178;21.016;2024-02-15T03:41:55;6.60;96.70
17033;DHT22;63208;52.178;21.016;2024-02-15T03:44:24;6.70;96.70
17033;DHT22;63208;52.178;21.016;2024-02-15T03:46:51;6.60;96.70
17033;DHT22;63208;52.178;21.016;2024-02-15T03:49:18;6.50;96.70
17033;DHT22;63208;52.178;21.016;2024-02-15T03:51:47;6.50;96.80
17033;DHT22;63208;52.178;21.016;2024-02-15T03:54:14;6.50;96.80
17033;DHT22;63208;52.178;21.016;2024-02-15T03:56:46;6.50;96.90
17033;DHT22;63208;52.178;21.016;2024-02-15T03:59:12;6.50;96.90
17033;DHT22;63208;52.178;21.016;2024-02-15T04:01:39;6.50;97.10
17033;DHT22;63208;52.178;21.016;2024-02-15T04:04:06;7.40;97.50
17033;DHT22;63208;52.178;21.016;2024-02-15T04:06:33;6.50;97.30
17033;DHT22;63208;52.178;21.016;2024-02-15T04:09:01;6.60;97.30
17033;DHT22;63208;52.178;21.016;2024-02-15T04:11:27;6.50;97.10
17033;DHT22;63208;52.178;21.016;2024-02-15T04:13:54;6.50;97.40
17033;DHT22;63208;52.178;21.016;2024-02-15T04:16:22;6.60;97.40
17033;DHT22;63208;52.178;21.016;2024-02-15T04:18:50;6.60;97.60
17033;DHT22;63208;52.178;21.016;2024-02-15T04:21:17;6.60;97.60
17033;DHT22;63208;52.178;21.016;2024-02-15T04:23:45;6.60;97.70
17033;DHT22;63208;52.178;21.016;2024-02-15T04:26:13;6.60;97.40
17033;DHT22;63208;52.178;21.016;2024-02-15T04:28:40;6.50;97.80
17033;DHT22;63208;52.178;21.016;2024-02-15T04:31:06;6.50;97.70
17033;DHT22;63208;52.178;21.016;2024-02-15T04:33:34;6.50;97.70
17033;DHT22;63208;52.178;21.016;2024-02-15T04:36:00;6.50;97.80
17033;DHT22;63208;52.178;21.016;2024-02-15T04:38:32;6.50;97.90
17033;DHT22;63208;52.178;21.016;2024-02-15T04:40:59;6.40;97.80
17033;DHT22;63208;52.178;21.016;2024-02-15T04:43:27;6.40;97.90
17033;DHT22;63208;52.178;21.016;2024-02-15T04:45:54;6.40;97.80
17033;DHT22;63208;52.178;21.016;2024-02-15T04:48:21;6.40;98.00
17033;DHT22;63208;52.178;21.016;2024-02-15T04:50:50;6.40;98.00
17033;DHT22;63208;52.178;21.016;2024-02-15T04:53:17;6.40;98.50
17033;DHT22;63208;52.178;21.016;2024-02-15T04:55:44;6.30;98.20
17033;DHT22;63208;52.178;21.016;2024-02-15T04:58:11;6.40;98.60
17033;DHT22;63208;52.178;21.016;2024-02-15T05:00:39;6.40;98.60
17033;DHT22;63208;52.178;21.016;2024-02-15T05:03:07;6.40;98.40
17033;DHT22;63208;52.178;21.016;2024-02-15T05:05:34;6.50;98.60
17033;DHT22;63208;52.178;21.016;2024-02-15T05:08:01;6.50;98.30
17033;DHT22;63208;52.178;21.016;2024-02-15T05:10:29;6.30;98.40
17033;DHT22;63208;52.178;21.016;2024-02-15T05:12:55;6.40;98.50
17033;DHT22;63208;52.178;21.016;2024-02-15T05:15:22;6.40;98.50
17033;DHT22;63208;52.178;21.016;2024-02-15T05:17:52;6.40;98.30
17033;DHT22;63208;52.178;21.016;2024-02-15T05:20:19;6.30;98.50
17033;DHT22;63208;52.178;21.016;2024-02-15T05:22:46;6.20;98.60
17033;DHT22;63208;52.178;21.016;2024-02-15T05:25:13;6.30;98.60
17033;DHT22;63208;52.178;21.016;2024-02-15T05:27:41;6.30;98.80
17033;DHT22;63208;52.178;21.016;2024-02-15T05:30:10;6.30;99.10
17033;DHT22;63208;52.178;21.016;2024-02-15T05:32:37;6.30;98.80
17033;DHT22;63208;52.178;21.016;2024-02-15T05:35:10;6.30;99.00
17033;DHT22;63208;52.178;21.016;2024-02-15T05:37:37;6.40;98.90
17033;DHT22;63208;52.178;21.016;2024-02-15T05:40:05;6.50;98.90
17033;DHT22;63208;52.178;21.016;2024-02-15T05:42:32;6.30;98.70
17033;DHT22;63208;52.178;21.016;2024-02-15T05:47:41;6.20;99.10
17033;DHT22;63208;52.178;21.016;2024-02-15T05:50:08;6.30;99.30
17033;DHT22;63208;52.178;21.016;2024-02-15T05:52:37;6.20;99.30
17033;DHT22;63208;52.178;21.016;2024-02-15T05:55:04;7.40;99.80
17033;DHT22;63208;52.178;21.016;2024-02-15T05:57:31;6.20;99.60
17033;DHT22;63208;52.178;21.016;2024-02-15T05:59:58;6.20;99.50
17033;DHT22;63208;52.178;21.016;2024-02-15T06:02:27;6.20;99.90
17033;DHT22;63208;52.178;21.016;2024-02-15T06:04:54;6.20;99.90
17033;DHT22;63208;52.178;21.016;2024-02-15T06:07:26;6.20;99.90
17033;DHT22;63208;52.178;21.016;2024-02-15T06:09:55;6.20;99.90
17033;DHT22;63208;52.178;21.016;2024-02-15T06:12:21;6.20;99.90
17033;DHT22;63208;52.178;21.016;2024-02-15T06:14:48;6.20;99.90
17033;DHT22;63208;52.178;21.016;2024-02-15T06:17:15;6.20;99.90
17033;DHT22;63208;52.178;21.016;2024-02-15T06:19:41;7.10;99.90
17033;DHT22;63208;52.178;21.016;2024-02-15T06:22:09;6.00;99.90
17033;DHT22;63208;52.178;21.016;2024-02-15T06:24:37;6.00;99.90
17033;DHT22;63208;52.178;21.016;2024-02-15T06:27:06;6.00;99.90
17033;DHT22;63208;52.178;21.016;2024-02-15T06:29:32;5.90;99.90
17033;DHT22;63208;52.178;21.016;2024-02-15T06:32:16;5.90;99.90
17033;DHT22;63208;52.178;21.016;2024-02-15T06:35:15;5.90;99.90
17033;DHT22;63208;52.178;21.016;2024-02-15T06:37:58;5.80;99.90
17033;DHT22;63208;52.178;21.016;2024-02-15T06:40:43;5.80;99.90
17033;DHT22;63208;52.178;21.016;2024-02-15T06:43:11;5.70;99.90
17033;DHT22;63208;52.178;21.016;2024-02-15T06:45:39;5.70;99.90
17033;DHT22;63208;52.178;21.016;2024-02-15T06:48:10;5.80;99.90
17033;DHT22;63208;52.178;21.016;2024-02-15T06:50:37;5.80;99.90
17033;DHT22;63208;52.178;21.016;2024-02-15T06:53:04;5.80;99.90
17033;DHT22;63208;52.178;21.016;2024-02-15T06:55:31;5.60;99.90
17033;DHT22;63208;52.178;21.016;2024-02-15T06:57:59;5.70;99.90
17033;DHT22;63208;52.178;21.016;2024-02-15T07:00:27;5.80;99.90
17033;DHT22;63208;52.178;21.016;2024-02-15T07:02:56;5.80;99.90
17033;DHT22;63208;52.178;21.016;2024-02-15T07:05:22;5.90;99.90
17033;DHT22;63208;52.178;21.016;2024-02-15T07:07:49;6.00;99.90
17033;DHT22;63208;52.178;21.016;2024-02-15T07:10:17;6.00;99.90
17033;DHT22;63208;52.178;21.016;2024-02-15T07:12:44;5.90;99.90
17033;DHT22;63208;52.178;21.016;2024-02-15T07:15:10;5.70;99.90
17033;DHT22;63208;52.178;21.016;2024-02-15T07:17:38;5.70;99.90
17033;DHT22;63208;52.178;21.016;2024-02-15T07:20:06;5.60;99.90
17033;DHT22;63208;52.178;21.016;2024-02-15T07:22:35;5.70;99.90
17033;DHT22;63208;52.178;21.016;2024-02-15T07:25:04;5.80;99.90
17033;DHT22;63208;52.178;21.016;2024-02-15T07:27:31;5.80;99.90
17033;DHT22;63208;52.178;21.016;2024-02-15T07:30:00;5.90;99.90
17033;DHT22;63208;52.178;21.016;2024-02-15T07:32:28;5.90;99.90
17033;DHT22;63208;52.178;21.016;2024-02-15T07:34:58;6.00;99.90
17033;DHT22;63208;52.178;21.016;2024-02-15T07:37:25;5.90;99.90
17033;DHT22;63208;52.178;21.016;2024-02-15T07:39:51;6.10;99.90
17033;DHT22;63208;52.178;21.016;2024-02-15T07:42:18;6.10;99.90
17033;DHT22;63208;52.178;21.016;2024-02-15T07:44:45;6.10;99.90
17033;DHT22;63208;52.178;21.016;2024-02-15T07:47:11;6.10;99.90
17033;DHT22;63208;52.178;21.016;2024-02-15T07:49:38;6.00;99.90
17033;DHT22;63208;52.178;21.016;2024-02-15T07:52:06;6.00;99.90
17033;DHT22;63208;52.178;21.016;2024-02-15T07:54:34;6.10;99.90
17033;DHT22;63208;52.178;21.016;2024-02-15T07:57:01;6.10;99.90
17033;DHT22;63208;52.178;21.016;2024-02-15T07:59:29;6.10;99.90
17033;DHT22;63208;52.178;21.016;2024-02-15T08:01:56;6.10;99.90
17033;DHT22;63208;52.178;21.016;2024-02-15T08:04:23;6.10;99.90
17033;DHT22;63208;52.178;21.016;2024-02-15T08:06:50;6.20;99.90
17033;DHT22;63208;52.178;21.016;2024-02-15T08:09:20;6.20;99.90
17033;DHT22;63208;52.178;21.016;2024-02-15T08:11:49;6.00;99.90
17033;DHT22;63208;52.178;21.016;2024-02-15T08:14:16;6.20;99.90
17033;DHT22;63208;52.178;21.016;2024-02-15T08:16:42;6.20;99.90
17033;DHT22;63208;52.178;21.016;2024-02-15T08:19:09;6.30;99.90
17033;DHT22;63208;52.178;21.016;2024-02-15T08:21:36;6.30;99.90
17033;DHT22;63208;52.178;21.016;2024-02-15T08:24:04;6.30;99.90
17033;DHT22;63208;52.178;21.016;2024-02-15T08:26:33;6.30;99.90
17033;DHT22;63208;52.178;21.016;2024-02-15T08:29:01;6.30;99.90
17033;DHT22;63208;52.178;21.016;2024-02-15T08:31:28;6.20;99.90
17033;DHT22;63208;52.178;21.016;2024-02-15T08:33:55;6.30;99.90
17033;DHT22;63208;52.178;21.016;2024-02-15T08:36:22;6.30;99.90
17033;DHT22;63208;52.178;21.016;2024-02-15T08:38:49;6.30;99.90
17033;DHT22;63208;52.178;21.016;2024-02-15T08:41:16;6.30;99.90
17033;DHT22;63208;52.178;21.016;2024-02-15T08:43:47;6.20;99.90
17033;DHT22;63208;52.178;21.016;2024-02-15T08:46:14;6.20;99.90
17033;DHT22;63208;52.178;21.016;2024-02-15T08:48:41;6.30;99.90
17033;DHT22;63208;52.178;21.016;2024-02-15T08:51:08;6.40;99.90
17033;DHT22;63208;52.178;21.016;2024-02-15T08:53:35;6.40;99.90
17033;DHT22;63208;52.178;21.016;2024-02-15T08:56:03;6.40;99.90
17033;DHT22;63208;52.178;21.016;2024-02-15T08:58:30;6.50;99.90
17033;DHT22;63208;52.178;21.016;2024-02-15T09:00:58;6.50;99.90
17033;DHT22;63208;52.178;21.016;2024-02-15T09:03:25;6.40;99.90
17033;DHT22;63208;52.178;21.016;2024-02-15T09:05:51;6.50;99.90
17033;DHT22;63208;52.178;21.016;2024-02-15T09:08:18;6.40;99.90
17033;DHT22;63208;52.178;21.016;2024-02-15T09:10:46;6.60;99.90
17033;DHT22;63208;52.178;21.016;2024-02-15T09:13:12;6.60;99.90
17033;DHT22;63208;52.178;21.016;2024-02-15T09:15:40;6.60;99.90
17033;DHT22;63208;52.178;21.016;2024-02-15T09:18:08;6.50;99.90
17033;DHT22;63208;52.178;21.016;2024-02-15T09:20:35;6.60;99.90
17033;DHT22;63208;52.178;21.016;2024-02-15T09:23:03;6.60;99.90
17033;DHT22;63208;52.178;21.016;2024-02-15T09:25:34;6.60;99.90
17033;DHT22;63208;52.178;21.016;2024-02-15T09:28:02;6.70;99.90
17033;DHT22;63208;52.178;21.016;2024-02-15T09:30:28;6.70;99.90
17033;DHT22;63208;52.178;21.016;2024-02-15T09:32:57;6.70;99.90
17033;DHT22;63208;52.178;21.016;2024-02-15T09:35:25;6.70;99.90
17033;DHT22;63208;52.178;21.016;2024-02-15T09:37:52;6.80;99.90
17033;DHT22;63208;52.178;21.016;2024-02-15T09:40:20;6.90;99.90
17033;DHT22;63208;52.178;21.016;2024-02-15T09:42:51;6.80;99.90
17033;DHT22;63208;52.178;21.016;2024-02-15T09:45:18;7.40;99.90
17033;DHT22;63208;52.178;21.016;2024-02-15T09:47:46;6.90;99.90
17033;DHT22;63208;52.178;21.016;2024-02-15T09:50:15;6.90;99.90
17033;DHT22;63208;52.178;21.016;2024-02-15T09:52:45;6.90;99.90
17033;DHT22;63208;52.178;21.016;2024-02-15T09:55:12;6.90;99.90
17033;DHT22;63208;52.178;21.016;2024-02-15T09:57:39;6.90;99.90
17033;DHT22;63208;52.178;21.016;2024-02-15T10:00:08;7.00;99.90
17033;DHT22;63208;52.178;21.016;2024-02-15T10:02:38;7.00;99.90
17033;DHT22;63208;52.178;21.016;2024-02-15T10:05:06;7.00;99.90
17033;DHT22;63208;52.178;21.016;2024-02-15T10:07:37;7.00;99.90
17033;DHT22;63208;52.178;21.016;2024-02-15T10:10:15;7.10;99.90
17033;DHT22;63208;52.178;21.016;2024-02-15T10:12:43;7.10;99.90
17033;DHT22;63208;52.178;21.016;2024-02-15T10:15:10;7.10;99.90
17033;DHT22;63208;52.178;21.016;2024-02-15T10:17:37;7.10;99.90
17033;DHT22;63208;52.178;21.016;2024-02-15T10:20:04;7.10;99.90
17033;DHT22;63208;52.178;21.016;2024-02-15T10:22:31;7.20;99.90
17033;DHT22;63208;52.178;21.016;2024-02-15T10:25:10;7.20;99.90
17033;DHT22;63208;52.178;21.016;2024-02-15T10:27:38;7.30;99.90
17033;DHT22;63208;52.178;21.016;2024-02-15T10:30:13;7.30;99.90
17033;DHT22;63208;52.178;21.016;2024-02-15T10:32:41;7.30;99.90
17033;DHT22;63208;52.178;21.016;2024-02-15T10:35:07;7.30;99.90
17033;DHT22;63208;52.178;21.016;2024-02-15T10:37:34;7.40;99.90
17033;DHT22;63208;52.178;21.016;2024-02-15T10:40:04;7.50;99.90
17033;DHT22;63208;52.178;21.016;2024-02-15T10:42:32;7.50;99.90
17033;DHT22;63208;52.178;21.016;2024-02-15T10:45:01;7.50;99.90
17033;DHT22;63208;52.178;21.016;2024-02-15T10:47:30;7.50;99.90
17033;DHT22;63208;52.178;21.016;2024-02-15T10:49:57;7.60;99.90
17033;DHT22;63208;52.178;21.016;2024-02-15T10:52:24;7.60;99.90
17033;DHT22;63208;52.178;21.016;2024-02-15T10:54:52;7.60;99.90
17033;DHT22;63208;52.178;21.016;2024-02-15T10:57:21;7.70;99.90
17033;DHT22;63208;52.178;21.016;2024-02-15T10:59:52;7.70;99.90
17033;DHT22;63208;52.178;21.016;2024-02-15T11:02:25;7.70;99.90
17033;DHT22;63208;52.178;21.016;2024-02-15T11:04:53;7.80;99.90
17033;DHT22;63208;52.178;21.016;2024-02-15T11:07:23;7.70;99.90
17033;DHT22;63208;52.178;21.016;2024-02-15T11:09:49;7.80;99.90
17033;DHT22;63208;52.178;21.016;2024-02-15T11:12:16;7.80;99.90
17033;DHT22;63208;52.178;21.016;2024-02-15T11:14:44;7.80;99.90
17033;DHT22;63208;52.178;21.016;2024-02-15T11:17:10;7.80;99.90
17033;DHT22;63208;52.178;21.016;2024-02-15T11:19:43;7.90;99.90
17033;DHT22;63208;52.178;21.016;2024-02-15T11:22:12;7.90;99.90
17033;DHT22;63208;52.178;21.016;2024-02-15T11:24:47;7.90;99.90
17033;DHT22;63208;52.178;21.016;2024-02-15T11:27:23;8.00;99.90
17033;DHT22;63208;52.178;21.016;2024-02-15T11:29:50;8.00;99.90
17033;DHT22;63208;52.178;21.016;2024-02-15T11:32:39;7.90;99.90
17033;DHT22;63208;52.178;21.016;2024-02-15T11:35:10;8.00;99.90
17033;DHT22;63208;52.178;21.016;2024-02-15T11:37:50;8.10;99.90
17033;DHT22;63208;52.178;21.016;2024-02-15T11:40:18;8.20;99.90
17033;DHT22;63208;52.178;21.016;2024-02-15T11:42:45;8.20;99.90
17033;DHT22;63208;52.178;21.016;2024-02-15T11:45:13;8.30;99.90
17033;DHT22;63208;52.178;21.016;2024-02-15T11:47:43;8.40;99.90
17033;DHT22;63208;52.178;21.016;2024-02-15T11:50:16;8.50;99.90
17033;DHT22;63208;52.178;21.016;2024-02-15T11:52:43;8.60;99.90
17033;DHT22;63208;52.178;21.016;2024-02-15T11:55:11;8.50;99.90
17033;DHT22;63208;52.178;21.016;2024-02-15T11:57:38;8.60;99.90
17033;DHT22;63208;52.178;21.016;2024-02-15T12:00:22;8.70;99.90
17033;DHT22;63208;52.178;21.016;2024-02-15T12:03:07;8.60;99.90
17033;DHT22;63208;52.178;21.016;2024-02-15T12:05:52;8.60;99.90
17033;DHT22;63208;52.178;21.016;2024-02-15T12:08:37;8.80;99.90
17033;DHT22;63208;52.178;21.016;2024-02-15T12:11:21;8.90;99.90
17033;DHT22;63208;52.178;21.016;2024-02-15T12:14:05;8.70;99.90
17033;DHT22;63208;52.178;21.016;2024-02-15T12:17:00;8.70;99.90
17033;DHT22;63208;52.178;21.016;2024-02-15T12:19:44;8.70;99.90
17033;DHT22;63208;52.178;21.016;2024-02-15T12:22:12;8.80;99.90
17033;DHT22;63208;52.178;21.016;2024-02-15T12:24:40;8.80;99.90
17033;DHT22;63208;52.178;21.016;2024-02-15T12:27:06;8.90;99.90
17033;DHT22;63208;52.178;21.016;2024-02-15T12:29:33;8.90;99.90
17033;DHT22;63208;52.178;21.016;2024-02-15T12:32:00;8.90;99.90
17033;DHT22;63208;52.178;21.016;2024-02-15T12:34:29;9.00;99.90
17033;DHT22;63208;52.178;21.016;2024-02-15T12:37:04;9.20;99.90
17033;DHT22;63208;52.178;21.016;2024-02-15T12:39:33;9.20;99.90
17033;DHT22;63208;52.178;21.016;2024-02-15T12:42:00;9.10;99.90
17033;DHT22;63208;52.178;21.016;2024-02-15T12:44:27;9.10;99.90
17033;DHT22;63208;52.178;21.016;2024-02-15T12:46:57;9.20;99.90
17033;DHT22;63208;52.178;21.016;2024-02-15T12:49:29;9.30;99.90
17033;DHT22;63208;52.178;21.016;2024-02-15T12:54:39;9.10;99.90
17033;DHT22;63208;52.178;21.016;2024-02-15T12:57:07;9.10;99.90
17033;DHT22;63208;52.178;21.016;2024-02-15T12:59:35;9.10;99.90
17033;DHT22;63208;52.178;21.016;2024-02-15T13:02:02;9.10;99.90
17033;DHT22;63208;52.178;21.016;2024-02-15T13:04:29;9.10;99.90
17033;DHT22;63208;52.178;21.016;2024-02-15T13:06:56;9.20;99.90
17033;DHT22;63208;52.178;21.016;2024-02-15T13:09:23;9.20;99.90
17033;DHT22;63208;52.178;21.016;2024-02-15T13:11:51;9.10;99.90
17033;DHT22;63208;52.178;21.016;2024-02-15T13:14:19;9.40;99.90
17033;DHT22;63208;52.178;21.016;2024-02-15T13:16:45;9.50;99.90
17033;DHT22;63208;52.178;21.016;2024-02-15T13:19:13;9.60;99.90
17033;DHT22;63208;52.178;21.016;2024-02-15T13:21:40;9.50;99.90
17033;DHT22;63208;52.178;21.016;2024-02-15T13:24:07;9.60;99.90
17033;DHT22;63208;52.178;21.016;2024-02-15T13:26:36;9.70;99.90
17033;DHT22;63208;52.178;21.016;2024-02-15T13:29:04;9.80;99.90
17033;DHT22;63208;52.178;21.016;2024-02-15T13:31:31;9.90;99.90
17033;DHT22;63208;52.178;21.016;2024-02-15T13:34:00;9.90;99.90
17033;DHT22;63208;52.178;21.016;2024-02-15T13:36:26;10.00;99.90
17033;DHT22;63208;52.178;21.016;2024-02-15T13:38:54;9.90;99.90
17033;DHT22;63208;52.178;21.016;2024-02-15T13:41:20;10.00;99.90
17033;DHT22;63208;52.178;21.016;2024-02-15T13:43:47;9.90;99.90
17033;DHT22;63208;52.178;21.016;2024-02-15T13:46:15;9.90;99.90
17033;DHT22;63208;52.178;21.016;2024-02-15T13:48:45;10.00;99.90
17033;DHT22;63208;52.178;21.016;2024-02-15T13:51:12;10.00;99.90
17033;DHT22;63208;52.178;21.016;2024-02-15T13:53:39;10.10;99.90
17033;DHT22;63208;52.178;21.016;2024-02-15T13:56:06;10.20;99.90
17033;DHT22;63208;52.178;21.016;2024-02-15T13:58:34;10.30;99.90
17033;DHT22;63208;52.178;21.016;2024-02-15T14:01:01;10.20;99.90
17033;DHT22;63208;52.178;21.016;2024-02-15T14:03:31;10.20;99.90
17033;DHT22;63208;52.178;21.016;2024-02-15T14:05:58;10.20;99.90
17033;DHT22;63208;52.178;21.016;2024-02-15T14:08:25;10.20;99.90
17033;DHT22;63208;52.178;21.016;2024-02-15T14:10:52;10.20;99.90
17033;DHT22;63208;52.178;21.016;2024-02-15T14:13:18;10.20;99.90
17033;DHT22;63208;52.178;21.016;2024-02-15T14:15:48;10.10;99.90
17033;DHT22;63208;52.178;21.016;2024-02-15T14:18:14;10.10;99.90
17033;DHT22;63208;52.178;21.016;2024-02-15T14:20:45;10.10;99.90
17033;DHT22;63208;52.178;21.016;2024-02-15T14:23:12;10.10;99.90
17033;DHT22;63208;52.178;21.016;2024-02-15T14:25:40;10.00;99.90
17033;DHT22;63208;52.178;21.016;2024-02-15T14:28:07;10.00;99.90
17033;DHT22;63208;52.178;21.016;2024-02-15T14:30:33;10.10;99.90
17033;DHT22;63208;52.178;21.016;2024-02-15T14:33:17;10.00;99.90
17033;DHT22;63208;52.178;21.016;2024-02-15T14:35:46;9.90;99.90
17033;DHT22;63208;52.178;21.016;2024-02-15T14:38:12;9.80;99.90
17033;DHT22;63208;52.178;21.016;2024-02-15T14:40:41;9.80;99.90
17033;DHT22;63208;52.178;21.016;2024-02-15T14:43:10;9.80;99.90
17033;DHT22;63208;52.178;21.016;2024-02-15T14:45:38;9.80;99.90
17033;DHT22;63208;52.178;21.016;2024-02-15T14:48:06;9.70;99.90
17033;DHT22;63208;52.178;21.016;2024-02-15T14:50:34;9.70;99.90
17033;DHT22;63208;52.178;21.016;2024-02-15T14:53:03;9.70;99.90
17033;DHT22;63208;52.178;21.016;2024-02-15T14:55:29;9.70;99.90
17033;DHT22;63208;52.178;21.016;2024-02-15T14:57:56;9.70;99.90
17033;DHT22;63208;52.178;21.016;2024-02-15T15:00:24;9.70;99.90
17033;DHT22;63208;52.178;21.016;2024-02-15T15:02:52;9.80;99.90
17033;DHT22;63208;52.178;21.016;2024-02-15T15:05:22;9.60;99.90
17033;DHT22;63208;52.178;21.016;2024-02-15T15:08:07;9.50;99.90
17033;DHT22;63208;52.178;21.016;2024-02-15T15:10:51;9.50;99.90
17033;DHT22;63208;52.178;21.016;2024-02-15T15:13:35;9.40;99.90
17033;DHT22;63208;52.178;21.016;2024-02-15T15:16:03;9.40;99.90
17033;DHT22;63208;52.178;21.016;2024-02-15T15:18:29;9.40;99.90
17033;DHT22;63208;52.178;21.016;2024-02-15T15:20:56;9.40;99.90
17033;DHT22;63208;52.178;21.016;2024-02-15T15:23:25;9.30;99.90
17033;DHT22;63208;52.178;21.016;2024-02-15T15:25:52;9.30;99.90
17033;DHT22;63208;52.178;21.016;2024-02-15T15:28:19;9.30;99.90
17033;DHT22;63208;52.178;21.016;2024-02-15T15:30:45;9.20;99.90
17033;DHT22;63208;52.178;21.016;2024-02-15T15:33:14;9.20;99.90
17033;DHT22;63208;52.178;21.016;2024-02-15T15:35:41;9.10;99.90
17033;DHT22;63208;52.178;21.016;2024-02-15T15:38:07;9.20;99.90
17033;DHT22;63208;52.178;21.016;2024-02-15T15:40:36;9.10;99.90
17033;DHT22;63208;52.178;21.016;2024-02-15T15:43:03;9.00;99.90